Time;durP1;ratioP1;P1;durP2;ratioP2;P2;SDS_P1;SDS_P2;PMS_P1;PMS_P2;Temp;Humidity;BMP_temperature;BMP_pressure;BME280_temperature;BME280_humidity;BME280_pressure;Samples;Min_cycle;Max_cycle;Signal;HPM_P1;HPM_P2
2021/06/13 00:00:04;;;;;;;;;;;21.20;50.80;;;;;;5039955;28;19964;-63
2021/06/13 00:02:29;;;;;;;;;;;21.10;50.50;;;;;;5057543;28;19991;-63
2021/06/13 00:04:55;;;;;;;;;;;21.10;51.40;;;;;;5050521;28;20424;-63
2021/06/13 00:07:20;;;;;;;;;;;21.20;51.80;;;;;;5053309;28;19921;-61
2021/06/13 00:09:46;;;;;;;;;;;21.20;51.30;;;;;;5055699;28;19920;-62
2021/06/13 00:12:11;;;;;;;;;;;21.30;51.70;;;;;;5032318;28;20323;-63
2021/06/13 00:14:36;;;;;;;;;;;21.20;50.90;;;;;;5049842;28;19917;-64
2021/06/13 00:17:02;;;;;;;;;;;21.20;52.10;;;;;;5037516;28;20381;-63
2021/06/13 00:19:27;;;;;;;;;;;21.30;51.40;;;;;;5035095;28;19917;-62
2021/06/13 00:21:53;;;;;;;;;;;21.30;51.20;;;;;;5046532;28;19916;-65
2021/06/13 00:24:20;;;;;;;;;;;21.30;51.10;;;;;;5042539;28;19947;-62
2021/06/13 00:26:46;;;;;;;;;;;21.20;50.70;;;;;;5058604;28;20005;-67
2021/06/13 00:29:11;;;;;;;;;;;21.10;50.50;;;;;;5050751;28;19924;-65
2021/06/13 00:31:37;;;;;;;;;;;21.10;51.60;;;;;;5049196;28;20043;-63
2021/06/13 00:34:02;;;;;;;;;;;21.30;51.50;;;;;;5041598;28;19928;-63
2021/06/13 00:36:28;;;;;;;;;;;21.20;51.10;;;;;;5025674;28;20541;-62
2021/06/13 00:38:53;;;;;;;;;;;20.90;50.40;;;;;;5040857;28;19920;-66
2021/06/13 00:41:19;;;;;;;;;;;20.70;50.30;;;;;;5052707;28;20495;-66
2021/06/13 00:43:45;;;;;;;;;;;20.60;51.30;;;;;;5031754;28;19944;-64
2021/06/13 00:46:10;;;;;;;;;;;20.60;51.50;;;;;;5053820;28;19924;-62
2021/06/13 00:48:36;;;;;;;;;;;20.70;51.80;;;;;;5048834;28;19924;-67
2021/06/13 00:51:01;;;;;;;;;;;20.70;51.50;;;;;;5047251;28;19974;-61
2021/06/13 00:53:28;;;;;;;;;;;20.70;51.60;;;;;;5033901;28;19993;-63
2021/06/13 00:55:54;;;;;;;;;;;20.70;51.70;;;;;;5049694;28;19921;-67
2021/06/13 00:58:20;;;;;;;;;;;20.90;52.10;;;;;;5041535;28;19924;-67
2021/06/13 01:00:45;;;;;;;;;;;21.00;51.90;;;;;;5029796;28;19925;-65
2021/06/13 01:03:11;;;;;;;;;;;20.80;50.30;;;;;;5045651;28;19916;-62
2021/06/13 01:05:36;;;;;;;;;;;20.80;51.90;;;;;;5048183;28;19925;-67
2021/06/13 01:08:05;;;;;;;;;;;20.70;51.50;;;;;;5056611;28;19963;-62
2021/06/13 01:10:36;;;;;;;;;;;20.70;51.50;;;;;;5023538;28;19921;-63
2021/06/13 01:13:12;;;;;;;;;;;20.60;50.80;;;;;;5052552;28;19928;-62
2021/06/13 01:15:40;;;;;;;;;;;20.40;51.50;;;;;;5036824;28;20444;-66
2021/06/13 01:18:07;;;;;;;;;;;20.60;52.40;;;;;;5035213;28;19916;-61
2021/06/13 01:20:46;;;;;;;;;;;20.60;52.60;;;;;;5026606;28;20117;-64
2021/06/13 01:23:25;;;;;;;;;;;20.50;52.30;;;;;;5044564;28;19933;-61
2021/06/13 01:26:09;;;;;;;;;;;20.70;52.60;;;;;;5047886;28;19916;-66
2021/06/13 01:28:53;;;;;;;;;;;20.70;52.60;;;;;;5050684;28;19952;-64
2021/06/13 01:31:19;;;;;;;;;;;20.80;52.60;;;;;;5045481;28;19967;-61
2021/06/13 01:33:45;;;;;;;;;;;20.80;52.40;;;;;;5052182;28;19920;-61
2021/06/13 01:36:11;;;;;;;;;;;20.90;53.30;;;;;;5049965;28;20019;-65
2021/06/13 01:38:36;;;;;;;;;;;20.90;53.00;;;;;;5049627;28;19924;-66
2021/06/13 01:41:09;;;;;;;;;;;21.00;53.10;;;;;;5015620;28;19921;-63
2021/06/13 01:43:35;;;;;;;;;;;21.00;53.30;;;;;;5048176;28;20420;-59
2021/06/13 01:46:00;;;;;;;;;;;20.90;52.70;;;;;;5028930;28;19947;-62
2021/06/13 01:48:26;;;;;;;;;;;20.90;53.30;;;;;;5056825;28;19995;-66
2021/06/13 01:50:51;;;;;;;;;;;21.00;53.20;;;;;;5037964;28;19928;-65
2021/06/13 01:53:17;;;;;;;;;;;21.00;53.10;;;;;;5051671;28;19921;-62
2021/06/13 01:55:46;;;;;;;;;;;21.10;53.10;;;;;;5046915;28;19955;-63
2021/06/13 01:58:12;;;;;;;;;;;21.00;53.20;;;;;;5031874;28;19921;-66
2021/06/13 02:00:37;;;;;;;;;;;21.10;53.20;;;;;;5051749;28;19920;-62
2021/06/13 02:03:03;;;;;;;;;;;21.10;53.80;;;;;;5026187;28;19948;-64
2021/06/13 02:05:28;;;;;;;;;;;21.00;53.50;;;;;;5044073;28;20396;-67
2021/06/13 02:07:54;;;;;;;;;;;21.00;53.70;;;;;;5030729;28;19951;-66
2021/06/13 02:10:20;;;;;;;;;;;21.20;53.90;;;;;;5050665;28;22883;-62
2021/06/13 02:12:46;;;;;;;;;;;21.20;53.30;;;;;;5032992;28;19962;-64
2021/06/13 02:15:11;;;;;;;;;;;21.20;53.50;;;;;;5044178;28;19916;-66
2021/06/13 02:17:37;;;;;;;;;;;21.20;53.00;;;;;;5047617;28;19927;-64
2021/06/13 02:20:06;;;;;;;;;;;21.20;53.40;;;;;;5056349;28;19989;-64
2021/06/13 02:22:31;;;;;;;;;;;21.20;53.50;;;;;;5050681;28;20302;-66
2021/06/13 02:24:57;;;;;;;;;;;21.20;53.20;;;;;;5035379;28;19920;-64
2021/06/13 02:27:23;;;;;;;;;;;21.20;53.20;;;;;;5032570;28;19947;-64
2021/06/13 02:29:48;;;;;;;;;;;21.20;53.30;;;;;;5026985;28;19933;-67
2021/06/13 02:32:14;;;;;;;;;;;21.20;52.70;;;;;;5046088;28;19940;-67
2021/06/13 02:34:39;;;;;;;;;;;21.20;53.30;;;;;;5051346;28;19927;-64
2021/06/13 02:37:06;;;;;;;;;;;21.30;53.80;;;;;;5010641;28;20686;-65
2021/06/13 02:39:32;;;;;;;;;;;21.30;53.50;;;;;;5014147;22;21131;-61
2021/06/13 02:41:58;;;;;;;;;;;21.30;53.30;;;;;;5033884;28;19944;-62
2021/06/13 02:44:23;;;;;;;;;;;21.30;53.50;;;;;;5035522;28;19951;-62
2021/06/13 02:46:49;;;;;;;;;;;21.30;53.50;;;;;;5018350;28;19921;-62
2021/06/13 02:49:14;;;;;;;;;;;21.30;53.60;;;;;;5018344;28;20055;-61
2021/06/13 02:51:42;;;;;;;;;;;21.30;53.50;;;;;;5018495;28;20363;-61
2021/06/13 02:54:08;;;;;;;;;;;21.30;53.60;;;;;;5036257;28;19923;-61
2021/06/13 02:56:34;;;;;;;;;;;21.30;52.70;;;;;;5019135;28;19917;-61
2021/06/13 02:59:12;;;;;;;;;;;21.30;53.60;;;;;;5023209;28;19928;-60
2021/06/13 03:01:40;;;;;;;;;;;21.20;51.90;;;;;;5021908;28;19916;-62
2021/06/13 03:04:06;;;;;;;;;;;21.20;53.30;;;;;;5018413;28;20310;-62
2021/06/13 03:06:31;;;;;;;;;;;21.20;53.30;;;;;;5036573;28;19932;-63
2021/06/13 03:08:57;;;;;;;;;;;21.00;52.60;;;;;;5036219;28;20141;-61
2021/06/13 03:11:22;;;;;;;;;;;21.00;53.10;;;;;;5018411;28;20003;-62
2021/06/13 03:13:48;;;;;;;;;;;21.10;53.70;;;;;;5020734;28;20129;-62
2021/06/13 03:16:13;;;;;;;;;;;21.10;53.70;;;;;;5022011;28;20753;-62
2021/06/13 03:18:40;;;;;;;;;;;21.20;53.40;;;;;;5003835;28;20364;-62
2021/06/13 03:21:05;;;;;;;;;;;21.30;53.70;;;;;;5037046;28;19917;-61
2021/06/13 03:23:31;;;;;;;;;;;21.30;53.70;;;;;;5019296;28;20755;-66
2021/06/13 03:25:57;;;;;;;;;;;21.10;52.70;;;;;;5020880;28;19917;-61
2021/06/13 03:28:22;;;;;;;;;;;21.10;52.70;;;;;;5038555;28;20019;-61
2021/06/13 03:30:48;;;;;;;;;;;21.00;53.20;;;;;;5019115;28;19933;-61
2021/06/13 03:33:13;;;;;;;;;;;21.10;53.40;;;;;;5020470;28;19929;-60
2021/06/13 03:35:39;;;;;;;;;;;21.10;53.10;;;;;;5018722;28;19925;-61
2021/06/13 03:38:04;;;;;;;;;;;21.10;52.90;;;;;;5037734;28;19921;-61
2021/06/13 03:40:30;;;;;;;;;;;21.10;52.70;;;;;;5020234;28;19920;-61
2021/06/13 03:42:55;;;;;;;;;;;21.10;53.40;;;;;;5019654;28;20318;-61
2021/06/13 03:45:22;;;;;;;;;;;21.10;53.30;;;;;;5037567;28;20023;-61
2021/06/13 03:47:47;;;;;;;;;;;21.10;52.00;;;;;;5019969;28;20352;-61
2021/06/13 03:50:13;;;;;;;;;;;21.10;53.50;;;;;;5019532;28;19925;-61
2021/06/13 03:52:38;;;;;;;;;;;21.00;53.30;;;;;;5002362;28;20286;-61
2021/06/13 03:55:04;;;;;;;;;;;20.90;51.80;;;;;;5019478;28;19920;-61
2021/06/13 03:57:30;;;;;;;;;;;20.90;53.50;;;;;;5037483;28;19921;-61
2021/06/13 03:59:55;;;;;;;;;;;20.90;53.20;;;;;;5036642;28;19924;-60
2021/06/13 04:02:20;;;;;;;;;;;21.00;52.60;;;;;;5019754;28;20385;-60
2021/06/13 04:04:52;;;;;;;;;;;20.80;52.70;;;;;;5019014;28;19962;-61
2021/06/13 04:07:18;;;;;;;;;;;20.80;54.00;;;;;;5019649;28;19917;-61
2021/06/13 04:09:43;;;;;;;;;;;20.90;53.60;;;;;;5002300;28;19931;-60
2021/06/13 04:12:09;;;;;;;;;;;20.80;53.50;;;;;;5002246;28;20543;-62
2021/06/13 04:14:35;;;;;;;;;;;20.70;53.30;;;;;;5037010;28;19940;-63
2021/06/13 04:17:00;;;;;;;;;;;20.80;53.10;;;;;;5037509;28;20362;-61
2021/06/13 04:19:26;;;;;;;;;;;20.70;53.00;;;;;;5037964;28;19921;-61
2021/06/13 04:21:51;;;;;;;;;;;20.80;52.60;;;;;;5036975;28;19974;-61
2021/06/13 04:24:19;;;;;;;;;;;20.60;53.40;;;;;;5019483;28;19928;-60
2021/06/13 04:26:45;;;;;;;;;;;20.60;53.50;;;;;;5037624;28;20652;-61
2021/06/13 04:29:11;;;;;;;;;;;20.60;53.10;;;;;;5020233;28;19928;-60
2021/06/13 04:31:36;;;;;;;;;;;20.60;53.30;;;;;;5019531;28;19977;-62
2021/06/13 04:34:02;;;;;;;;;;;20.70;53.60;;;;;;5037403;28;20054;-62
2021/06/13 04:36:27;;;;;;;;;;;20.70;53.60;;;;;;5019680;28;19920;-60
2021/06/13 04:38:52;;;;;;;;;;;20.70;52.40;;;;;;5037327;28;19924;-60
2021/06/13 04:41:18;;;;;;;;;;;20.50;52.50;;;;;;5037097;28;19951;-61
2021/06/13 04:43:43;;;;;;;;;;;20.50;53.60;;;;;;5019087;28;20110;-62
2021/06/13 04:46:09;;;;;;;;;;;20.60;52.30;;;;;;5036900;28;19921;-63
2021/06/13 04:48:35;;;;;;;;;;;20.40;53.20;;;;;;5020420;28;20008;-61
2021/06/13 04:51:02;;;;;;;;;;;20.50;53.30;;;;;;5036791;28;20009;-60
2021/06/13 04:53:47;;;;;;;;;;;20.50;53.10;;;;;;5020434;28;20008;-61
2021/06/13 04:56:30;;;;;;;;;;;20.60;53.90;;;;;;5013639;28;19983;-60
2021/06/13 04:58:56;;;;;;;;;;;20.70;53.20;;;;;;5036189;28;19924;-61
2021/06/13 05:01:21;;;;;;;;;;;20.70;52.90;;;;;;5036599;28;19932;-59
2021/06/13 05:03:47;;;;;;;;;;;20.70;52.20;;;;;;5018426;28;20006;-61
2021/06/13 05:06:12;;;;;;;;;;;20.60;53.10;;;;;;5030047;28;20366;-62
2021/06/13 05:08:43;;;;;;;;;;;20.50;52.50;;;;;;5007852;28;19921;-60
2021/06/13 05:11:09;;;;;;;;;;;20.40;52.50;;;;;;5014005;28;20395;-60
2021/06/13 05:13:34;;;;;;;;;;;20.20;52.90;;;;;;5036849;28;20070;-60
2021/06/13 05:16:00;;;;;;;;;;;20.20;52.10;;;;;;5035201;28;19928;-61
2021/06/13 05:18:25;;;;;;;;;;;20.20;53.60;;;;;;5035714;28;20005;-61
2021/06/13 05:20:54;;;;;;;;;;;20.20;53.20;;;;;;5035825;28;19924;-61
2021/06/13 05:23:19;;;;;;;;;;;20.30;53.10;;;;;;5002925;28;20007;-61
2021/06/13 05:25:45;;;;;;;;;;;20.30;52.80;;;;;;5018701;28;20659;-61
2021/06/13 05:28:10;;;;;;;;;;;20.40;53.50;;;;;;5036171;28;20275;-61
2021/06/13 05:30:36;;;;;;;;;;;20.50;53.30;;;;;;5036883;28;19936;-66
2021/06/13 05:33:01;;;;;;;;;;;20.50;53.40;;;;;;5036000;28;19999;-61
2021/06/13 05:35:26;;;;;;;;;;;20.50;53.50;;;;;;5018148;28;19924;-61
2021/06/13 05:37:52;;;;;;;;;;;20.40;51.90;;;;;;5034771;28;19986;-61
2021/06/13 05:40:18;;;;;;;;;;;20.40;52.80;;;;;;5035716;28;19920;-61
2021/06/13 05:42:43;;;;;;;;;;;20.30;52.00;;;;;;5018180;28;20025;-61
2021/06/13 05:45:09;;;;;;;;;;;20.30;53.30;;;;;;5034713;28;20552;-61
2021/06/13 05:47:35;;;;;;;;;;;20.30;52.70;;;;;;5036719;28;19924;-61
2021/06/13 05:50:01;;;;;;;;;;;20.40;53.20;;;;;;5001529;28;20003;-61
2021/06/13 05:52:26;;;;;;;;;;;20.30;52.10;;;;;;5036061;28;19921;-60
2021/06/13 05:54:52;;;;;;;;;;;20.30;52.80;;;;;;5019194;28;19924;-60
2021/06/13 05:57:17;;;;;;;;;;;20.40;52.70;;;;;;5034999;28;19916;-61
2021/06/13 05:59:43;;;;;;;;;;;20.40;52.30;;;;;;5017949;28;20008;-61
2021/06/13 06:02:08;;;;;;;;;;;20.40;51.80;;;;;;5036093;28;19917;-61
2021/06/13 06:04:34;;;;;;;;;;;20.40;52.50;;;;;;5036516;28;19956;-60
2021/06/13 06:06:59;;;;;;;;;;;20.40;52.60;;;;;;5035640;28;19924;-60
2021/06/13 06:09:25;;;;;;;;;;;20.40;51.60;;;;;;5035243;28;19936;-61
2021/06/13 06:11:50;;;;;;;;;;;20.30;48.30;;;;;;5017657;28;19917;-60
2021/06/13 06:14:16;;;;;;;;;;;20.20;51.60;;;;;;5035966;28;19924;-61
2021/06/13 06:16:41;;;;;;;;;;;20.10;51.80;;;;;;5036286;28;20714;-60
2021/06/13 06:19:06;;;;;;;;;;;20.30;52.20;;;;;;5017973;28;19921;-61
2021/06/13 06:21:32;;;;;;;;;;;20.40;51.70;;;;;;5035793;28;20071;-58
2021/06/13 06:23:57;;;;;;;;;;;20.30;50.00;;;;;;5035995;28;19917;-60
2021/06/13 06:26:23;;;;;;;;;;;20.10;50.50;;;;;;5035979;28;19921;-60
2021/06/13 06:28:48;;;;;;;;;;;20.20;51.70;;;;;;5036006;28;19952;-61
2021/06/13 06:31:14;;;;;;;;;;;20.30;51.60;;;;;;5017425;28;19956;-60
2021/06/13 06:33:39;;;;;;;;;;;20.10;51.20;;;;;;5036127;28;19921;-61
2021/06/13 06:36:05;;;;;;;;;;;20.10;51.00;;;;;;5018690;28;19924;-61
2021/06/13 06:38:31;;;;;;;;;;;20.20;51.90;;;;;;5036586;28;20327;-61
2021/06/13 06:40:58;;;;;;;;;;;20.30;51.70;;;;;;5035887;28;19929;-61
2021/06/13 06:43:23;;;;;;;;;;;20.30;51.80;;;;;;5036539;28;20019;-61
2021/06/13 06:45:49;;;;;;;;;;;20.20;49.50;;;;;;5036108;28;20015;-60
2021/06/13 06:48:14;;;;;;;;;;;20.10;50.90;;;;;;5015436;28;19921;-61
2021/06/13 06:50:40;;;;;;;;;;;20.20;52.50;;;;;;5035466;28;19921;-60
2021/06/13 06:53:05;;;;;;;;;;;20.30;51.50;;;;;;5036598;28;20336;-60
2021/06/13 06:55:31;;;;;;;;;;;20.30;51.70;;;;;;5035653;28;19924;-60
2021/06/13 06:57:56;;;;;;;;;;;20.40;51.20;;;;;;5036083;28;19925;-60
2021/06/13 07:00:22;;;;;;;;;;;20.40;51.30;;;;;;5018230;28;20285;-60
2021/06/13 07:02:47;;;;;;;;;;;20.40;51.90;;;;;;5035672;28;19916;-61
2021/06/13 07:05:13;;;;;;;;;;;20.30;50.70;;;;;;5036641;28;19928;-60
2021/06/13 07:07:38;;;;;;;;;;;20.10;51.20;;;;;;5017242;28;19925;-60
2021/06/13 07:10:04;;;;;;;;;;;20.10;50.80;;;;;;5035930;28;19927;-60
2021/06/13 07:12:29;;;;;;;;;;;20.00;50.50;;;;;;5036358;28;20526;-60
2021/06/13 07:14:55;;;;;;;;;;;20.10;51.10;;;;;;5017649;28;19943;-60
2021/06/13 07:17:20;;;;;;;;;;;20.10;51.50;;;;;;5036134;28;20012;-59
2021/06/13 07:19:46;;;;;;;;;;;20.10;51.30;;;;;;5014850;28;19920;-59
2021/06/13 07:22:11;;;;;;;;;;;20.00;49.80;;;;;;5017499;28;19952;-61
2021/06/13 07:24:37;;;;;;;;;;;20.00;51.10;;;;;;5031805;28;19924;-60
2021/06/13 07:27:02;;;;;;;;;;;20.00;51.30;;;;;;5035906;28;19917;-60
2021/06/13 07:29:28;;;;;;;;;;;20.00;50.50;;;;;;5035326;28;19932;-59
2021/06/13 07:31:53;;;;;;;;;;;20.10;51.30;;;;;;5034303;28;19920;-60
2021/06/13 07:34:19;;;;;;;;;;;20.00;50.80;;;;;;5017159;28;19925;-59
2021/06/13 07:36:44;;;;;;;;;;;20.00;50.30;;;;;;5034946;28;19924;-59
2021/06/13 07:39:10;;;;;;;;;;;19.70;49.70;;;;;;5034831;28;19925;-60
2021/06/13 07:41:35;;;;;;;;;;;19.90;51.20;;;;;;5035764;28;19978;-59
2021/06/13 07:44:01;;;;;;;;;;;19.80;49.10;;;;;;5038382;28;19917;-59
2021/06/13 07:46:26;;;;;;;;;;;19.80;50.90;;;;;;5038715;28;19917;-60
2021/06/13 07:48:52;;;;;;;;;;;19.90;50.90;;;;;;5020889;28;19932;-59
2021/06/13 07:51:17;;;;;;;;;;;19.80;49.70;;;;;;5038447;28;19928;-59
2021/06/13 07:53:45;;;;;;;;;;;19.80;49.90;;;;;;5038760;28;19923;-59
2021/06/13 07:56:11;;;;;;;;;;;19.90;51.60;;;;;;5038135;28;19928;-60
2021/06/13 07:58:37;;;;;;;;;;;19.90;51.30;;;;;;5018086;28;19917;-60
2021/06/13 08:01:02;;;;;;;;;;;20.00;51.70;;;;;;4995058;28;19932;-59
2021/06/13 08:03:28;;;;;;;;;;;19.90;50.80;;;;;;5040007;28;19921;-61
2021/06/13 08:05:53;;;;;;;;;;;20.00;52.00;;;;;;5022127;28;19921;-61
2021/06/13 08:08:19;;;;;;;;;;;20.00;49.30;;;;;;5039822;28;20743;-60
2021/06/13 08:10:44;;;;;;;;;;;19.80;50.30;;;;;;5038880;28;19916;-60
2021/06/13 08:13:09;;;;;;;;;;;19.90;51.20;;;;;;5032947;28;19929;-59
2021/06/13 08:15:35;;;;;;;;;;;20.00;52.40;;;;;;5035383;28;19932;-58
2021/06/13 08:18:00;;;;;;;;;;;20.00;51.80;;;;;;5038649;28;19928;-62
2021/06/13 08:20:26;;;;;;;;;;;20.00;51.50;;;;;;5035765;28;19917;-61
2021/06/13 08:22:52;;;;;;;;;;;20.00;51.80;;;;;;5042204;28;19925;-61
2021/06/13 08:25:17;;;;;;;;;;;20.10;52.40;;;;;;5026113;28;19970;-60
2021/06/13 08:27:43;;;;;;;;;;;20.10;52.50;;;;;;5008188;28;20278;-58
2021/06/13 08:30:09;;;;;;;;;;;20.20;51.90;;;;;;5032014;28;19929;-60
2021/06/13 08:32:35;;;;;;;;;;;20.20;52.00;;;;;;5024514;28;19925;-61
2021/06/13 08:35:00;;;;;;;;;;;20.30;52.30;;;;;;5043370;28;19928;-62
2021/06/13 08:37:26;;;;;;;;;;;20.30;53.20;;;;;;5043390;28;19921;-60
2021/06/13 08:39:51;;;;;;;;;;;20.40;53.10;;;;;;5061643;22;19936;-63
2021/06/13 08:42:17;;;;;;;;;;;20.40;54.50;;;;;;5082707;28;19916;-61
2021/06/13 08:44:42;;;;;;;;;;;20.40;54.60;;;;;;5054427;28;19921;-61
2021/06/13 08:47:09;;;;;;;;;;;20.50;54.00;;;;;;5030713;28;19923;-65
2021/06/13 08:49:34;;;;;;;;;;;20.50;53.70;;;;;;5064725;28;19925;-63
2021/06/13 08:51:59;;;;;;;;;;;20.50;53.80;;;;;;5062951;28;20251;-63
2021/06/13 08:54:25;;;;;;;;;;;20.50;53.50;;;;;;5055177;28;19920;-60
2021/06/13 08:56:50;;;;;;;;;;;20.50;52.90;;;;;;5063716;28;19916;-61
2021/06/13 08:59:16;;;;;;;;;;;20.50;53.50;;;;;;5061885;28;20293;-62
2021/06/13 09:01:41;;;;;;;;;;;20.50;52.90;;;;;;5047750;28;19970;-62
2021/06/13 09:04:07;;;;;;;;;;;20.50;52.80;;;;;;5051394;28;19931;-61
2021/06/13 09:06:32;;;;;;;;;;;20.50;52.50;;;;;;5041285;28;19920;-62
2021/06/13 09:08:59;;;;;;;;;;;20.50;52.40;;;;;;5034265;28;20335;-62
2021/06/13 09:11:24;;;;;;;;;;;20.50;52.10;;;;;;5052734;28;20378;-63
2021/06/13 09:13:50;;;;;;;;;;;20.50;52.00;;;;;;5063437;28;19959;-63
2021/06/13 09:16:15;;;;;;;;;;;20.50;51.70;;;;;;5074749;28;19920;-62
2021/06/13 09:18:41;;;;;;;;;;;20.50;51.70;;;;;;5071745;28;19920;-62
2021/06/13 09:21:07;;;;;;;;;;;20.50;51.70;;;;;;5063228;28;19986;-64
2021/06/13 09:23:35;;;;;;;;;;;20.50;51.60;;;;;;5038257;28;19917;-61
2021/06/13 09:26:04;;;;;;;;;;;20.50;51.50;;;;;;5053038;28;19920;-60
2021/06/13 09:28:33;;;;;;;;;;;20.50;51.50;;;;;;5049248;28;20007;-61
2021/06/13 09:30:58;;;;;;;;;;;20.40;49.20;;;;;;5048109;28;19944;-61
2021/06/13 09:33:26;;;;;;;;;;;20.50;50.70;;;;;;5068363;28;20021;-61
2021/06/13 09:35:52;;;;;;;;;;;20.50;51.40;;;;;;5054220;28;19927;-60
2021/06/13 09:38:22;;;;;;;;;;;20.50;51.20;;;;;;5065415;28;19920;-62
2021/06/13 09:40:55;;;;;;;;;;;20.50;50.20;;;;;;5055659;28;19931;-63
2021/06/13 09:43:23;;;;;;;;;;;20.40;50.10;;;;;;5046265;28;19920;-60
2021/06/13 09:45:52;;;;;;;;;;;20.50;50.40;;;;;;5059209;28;21063;-62
2021/06/13 09:48:18;;;;;;;;;;;20.40;50.10;;;;;;5041209;28;19916;-62
2021/06/13 09:50:44;;;;;;;;;;;20.50;50.80;;;;;;5038569;28;20355;-62
2021/06/13 09:53:29;;;;;;;;;;;20.50;51.10;;;;;;5049450;28;19924;-62
2021/06/13 09:56:01;;;;;;;;;;;20.50;51.10;;;;;;5050456;28;20350;-61
2021/06/13 09:58:27;;;;;;;;;;;20.50;51.20;;;;;;5057240;28;19916;-62
2021/06/13 10:00:53;;;;;;;;;;;20.60;51.70;;;;;;5040257;28;19934;-61
2021/06/13 10:03:19;;;;;;;;;;;20.50;51.20;;;;;;5036682;28;20309;-63
2021/06/13 10:05:54;;;;;;;;;;;20.50;48.90;;;;;;5061625;28;19990;-62
2021/06/13 10:08:20;;;;;;;;;;;20.50;50.50;;;;;;5047983;28;20394;-62
2021/06/13 10:10:45;;;;;;;;;;;20.50;51.30;;;;;;5055487;28;19983;-62
2021/06/13 10:13:11;;;;;;;;;;;20.50;51.10;;;;;;5061018;28;20271;-63
2021/06/13 10:15:36;;;;;;;;;;;20.50;49.80;;;;;;5036234;28;19924;-62
2021/06/13 10:18:08;;;;;;;;;;;20.50;50.50;;;;;;5063991;28;19916;-62
2021/06/13 10:20:34;;;;;;;;;;;20.50;50.80;;;;;;5053770;28;19917;-62
2021/06/13 10:22:59;;;;;;;;;;;20.60;51.10;;;;;;5048233;28;21710;-62
2021/06/13 10:25:25;;;;;;;;;;;20.60;50.30;;;;;;5045844;28;19916;-63
2021/06/13 10:27:50;;;;;;;;;;;20.60;51.90;;;;;;5036733;28;20373;-62
2021/06/13 10:30:16;;;;;;;;;;;20.60;51.60;;;;;;5036171;28;19925;-61
2021/06/13 10:32:41;;;;;;;;;;;20.50;51.00;;;;;;5050053;28;19935;-61
2021/06/13 10:35:07;;;;;;;;;;;20.60;52.00;;;;;;5064296;28;19921;-61
2021/06/13 10:37:33;;;;;;;;;;;20.60;52.30;;;;;;5060328;28;20695;-62
2021/06/13 10:39:58;;;;;;;;;;;20.60;52.30;;;;;;5058402;28;19932;-62
2021/06/13 10:42:24;;;;;;;;;;;20.60;52.30;;;;;;5038777;28;19927;-62
2021/06/13 10:44:53;;;;;;;;;;;20.70;52.00;;;;;;5051793;28;19925;-62
2021/06/13 10:47:19;;;;;;;;;;;20.60;51.50;;;;;;5049079;28;20437;-61
2021/06/13 10:49:46;;;;;;;;;;;20.60;51.50;;;;;;5057271;28;19964;-62
2021/06/13 10:52:12;;;;;;;;;;;20.60;51.70;;;;;;5058600;28;20000;-61
2021/06/13 10:54:38;;;;;;;;;;;20.60;51.00;;;;;;5037920;28;19924;-61
2021/06/13 10:57:04;;;;;;;;;;;20.60;51.60;;;;;;5059591;28;20483;-63
2021/06/13 10:59:32;;;;;;;;;;;20.60;48.80;;;;;;5057746;28;19932;-62
2021/06/13 11:02:03;;;;;;;;;;;20.50;49.90;;;;;;5067261;28;20289;-61
2021/06/13 11:04:47;;;;;;;;;;;20.60;51.30;;;;;;5041477;28;19955;-62
2021/06/13 11:07:28;;;;;;;;;;;20.60;49.70;;;;;;5048614;28;20276;-61
2021/06/13 11:10:05;;;;;;;;;;;20.50;49.90;;;;;;5060784;28;19924;-63
2021/06/13 11:12:41;;;;;;;;;;;20.50;50.80;;;;;;5052768;28;19928;-62
2021/06/13 11:15:07;;;;;;;;;;;20.30;49.70;;;;;;5056455;28;19924;-62
2021/06/13 11:17:51;;;;;;;;;;;20.30;49.70;;;;;;5056427;28;19920;-63
2021/06/13 11:23:07;;;;;;;;;;;20.40;50.50;;;;;;5054602;28;19931;-63
2021/06/13 11:25:36;;;;;;;;;;;20.30;48.20;;;;;;5059219;28;19924;-63
2021/06/13 11:28:11;;;;;;;;;;;20.10;48.60;;;;;;5053899;28;19917;-62
2021/06/13 11:30:41;;;;;;;;;;;20.20;48.90;;;;;;5039559;28;19930;-62
2021/06/13 11:33:07;;;;;;;;;;;20.30;49.40;;;;;;5052255;28;20546;-62
2021/06/13 11:35:37;;;;;;;;;;;20.30;49.20;;;;;;5043637;28;19926;-62
2021/06/13 11:38:21;;;;;;;;;;;20.30;50.00;;;;;;5066007;28;19927;-61
2021/06/13 11:40:48;;;;;;;;;;;20.30;49.50;;;;;;5038159;28;19924;-61
2021/06/13 11:43:14;;;;;;;;;;;20.30;49.20;;;;;;5052147;28;20055;-61
2021/06/13 11:45:56;;;;;;;;;;;20.30;49.60;;;;;;5049064;28;19931;-62
2021/06/13 11:48:28;;;;;;;;;;;20.30;49.00;;;;;;5054418;28;19921;-61
2021/06/13 11:51:09;;;;;;;;;;;20.30;49.70;;;;;;5060999;28;19924;-62
2021/06/13 11:53:53;;;;;;;;;;;20.40;50.20;;;;;;5052997;28;19917;-61
2021/06/13 11:56:27;;;;;;;;;;;20.40;49.90;;;;;;5059351;28;19959;-60
2021/06/13 11:58:57;;;;;;;;;;;20.30;49.50;;;;;;5057236;28;19920;-61
2021/06/13 12:01:23;;;;;;;;;;;20.30;49.50;;;;;;5046829;28;20000;-61
2021/06/13 12:03:48;;;;;;;;;;;20.30;49.10;;;;;;5052125;28;19924;-61
2021/06/13 12:06:16;;;;;;;;;;;20.30;49.10;;;;;;5053449;28;19932;-61
2021/06/13 12:08:42;;;;;;;;;;;20.30;48.90;;;;;;5030623;28;19916;-63
2021/06/13 12:11:07;;;;;;;;;;;20.30;48.50;;;;;;5049251;28;19923;-67
2021/06/13 12:13:33;;;;;;;;;;;20.40;48.30;;;;;;5061054;28;19920;-62
2021/06/13 12:15:58;;;;;;;;;;;20.40;47.20;;;;;;5058235;28;19921;-62
2021/06/13 12:18:24;;;;;;;;;;;20.30;48.50;;;;;;5055461;28;20530;-62
2021/06/13 12:20:56;;;;;;;;;;;20.30;48.70;;;;;;5065111;28;19923;-62
2021/06/13 12:23:32;;;;;;;;;;;20.20;48.10;;;;;;5021202;28;20380;-62
2021/06/13 12:28:41;;;;;;;;;;;20.30;48.40;;;;;;5046354;28;19923;-62
2021/06/13 12:31:07;;;;;;;;;;;20.30;48.10;;;;;;5056944;28;19921;-62
2021/06/13 12:33:35;;;;;;;;;;;20.30;48.70;;;;;;5056780;28;19917;-61
2021/06/13 12:36:03;;;;;;;;;;;20.30;48.50;;;;;;5053898;28;19939;-63
2021/06/13 12:38:29;;;;;;;;;;;20.30;48.00;;;;;;5045736;28;20317;-63
2021/06/13 12:40:57;;;;;;;;;;;20.30;48.00;;;;;;5040055;28;19938;-62
2021/06/13 12:43:53;;;;;;;;;;;20.30;48.00;;;;;;5051111;28;20007;-62
2021/06/13 12:46:18;;;;;;;;;;;20.30;46.80;;;;;;5039814;28;19923;-62
2021/06/13 12:48:45;;;;;;;;;;;20.20;47.80;;;;;;5062979;28;19920;-62
2021/06/13 12:51:10;;;;;;;;;;;20.20;48.10;;;;;;5040162;28;19926;-63
2021/06/13 12:53:36;;;;;;;;;;;20.30;48.30;;;;;;5036311;28;19920;-63
2021/06/13 12:56:02;;;;;;;;;;;20.30;48.30;;;;;;5060709;28;20373;-62
2021/06/13 12:58:29;;;;;;;;;;;20.30;48.30;;;;;;5058543;28;19924;-63
2021/06/13 13:00:55;;;;;;;;;;;20.30;47.60;;;;;;5064054;28;20368;-63
2021/06/13 13:03:23;;;;;;;;;;;20.10;46.80;;;;;;5049590;28;19917;-63
2021/06/13 13:06:04;;;;;;;;;;;20.00;46.90;;;;;;5036917;28;19920;-63
2021/06/13 13:08:37;;;;;;;;;;;20.10;47.50;;;;;;5029631;28;19924;-62
2021/06/13 13:11:03;;;;;;;;;;;20.10;47.40;;;;;;5034338;28;19962;-62
2021/06/13 13:13:36;;;;;;;;;;;20.20;47.40;;;;;;5051611;28;20449;-62
2021/06/13 13:16:02;;;;;;;;;;;20.10;47.60;;;;;;5038522;28;19924;-63
2021/06/13 13:18:27;;;;;;;;;;;20.20;48.00;;;;;;5074933;28;19920;-63
2021/06/13 13:20:53;;;;;;;;;;;20.10;47.90;;;;;;5070609;28;20404;-62
2021/06/13 13:23:19;;;;;;;;;;;20.10;47.60;;;;;;5051156;28;19916;-62
2021/06/13 13:25:45;;;;;;;;;;;20.20;47.70;;;;;;5056245;28;20624;-62
2021/06/13 13:28:26;;;;;;;;;;;20.20;48.20;;;;;;5056083;28;19925;-62
2021/06/13 13:30:53;;;;;;;;;;;20.10;47.50;;;;;;5041224;28;19928;-62
2021/06/13 13:33:33;;;;;;;;;;;20.10;47.70;;;;;;5021132;28;19921;-62
2021/06/13 13:35:59;;;;;;;;;;;20.20;47.90;;;;;;5053578;28;19924;-62
2021/06/13 13:38:35;;;;;;;;;;;20.10;47.40;;;;;;5056359;28;19938;-62
2021/06/13 13:41:00;;;;;;;;;;;20.00;47.30;;;;;;5035727;28;19929;-62
2021/06/13 13:43:26;;;;;;;;;;;20.00;47.60;;;;;;5052387;28;19921;-62
2021/06/13 13:45:51;;;;;;;;;;;19.90;47.00;;;;;;5065503;28;19959;-62
2021/06/13 13:48:19;;;;;;;;;;;19.90;47.40;;;;;;5042139;28;20436;-62
2021/06/13 13:50:53;;;;;;;;;;;19.90;46.60;;;;;;5041544;28;19986;-62
2021/06/13 13:53:26;;;;;;;;;;;19.90;47.30;;;;;;5035212;28;19931;-62
2021/06/13 13:55:52;;;;;;;;;;;19.90;47.50;;;;;;5033636;28;20322;-62
2021/06/13 13:58:17;;;;;;;;;;;19.90;47.10;;;;;;5058090;28;19971;-62
2021/06/13 14:00:43;;;;;;;;;;;19.90;47.70;;;;;;5029308;28;19966;-62
2021/06/13 14:03:08;;;;;;;;;;;19.90;47.40;;;;;;5067795;28;19920;-62
2021/06/13 14:05:34;;;;;;;;;;;20.00;47.80;;;;;;5059405;28;20377;-62
2021/06/13 14:08:00;;;;;;;;;;;20.00;48.70;;;;;;5056818;28;19927;-62
2021/06/13 14:10:26;;;;;;;;;;;20.00;48.50;;;;;;5049474;28;19920;-62
2021/06/13 14:12:51;;;;;;;;;;;20.00;47.10;;;;;;5064508;28;19920;-62
2021/06/13 14:15:17;;;;;;;;;;;19.90;47.10;;;;;;5049478;28;19921;-62
2021/06/13 14:17:42;;;;;;;;;;;19.90;46.80;;;;;;5055852;28;19920;-62
2021/06/13 14:20:08;;;;;;;;;;;19.90;47.50;;;;;;5061412;28;20328;-62